Weather at Askestad Airstrip

Public forecast

Using degrees Celsius for public forecast. Weather courtesy of forecast.io.

Closest aviation weather report (METAR) to Askestad Airstrip

Closest report is Oslo, Fornebu Airport, 11.9 nm (22.0 km) NE. Retrieved 2021/04/12 00:50 UTC (14 minutes ago):

ENFB 120050Z AUTO 02029KT 9999NDV FEW033/// ///// Q//// W///S5

Closest aviation forecast (TAF) to Askestad Airstrip

Closest forecast is Moss Airport, Rygge, 25.8 nm (47.8 km) SSE. Retrieved 2021-04-12 00:57 UTC (7 minutes ago):

TAF ENRY 112300Z 1200/1224 04008KT 9999 -RASN SCT010 BKN015 TEMPO 1200/1214 1200 SN VV004 PROB40 TEMPO 1214/1224 1200 SHSN BKN008 FEW020CB